logo
Search for airport 
image banner adimage banner adimage banner ad
image banner ad

EPSC - Szczecin/Goleniow

Located in Szczecin, Poland

ICAO - EPSC, IATA - SZZ

Data provided by Airmate  

General information

Coordinates: N53°35'5" E14°54'8"
Elevation is 155 feet MSL.
Magnetic variation is 4.9667° East
View others Airports in West Pomerania

Operational data

Special qualification required
Current time UTC:
Current local time:
Weather
METAR: EPSC 280200Z VRB01KT CAVOK 15/14 Q1014
TAF: TAF EPSC 272330Z 2800/2824 12007KT CAVOK PROB40 TEMPO 2800/2808 -SHRA SCT060CB BECMG 2806/2809 26010KT TEMPO 2808/2813 3000 SHRA SCT040CB PROB40 TEMPO 2808/2813 VRB17G34KT 1500 TSGR BKN012 BKN025CB BECMG 2815/2818 18005KT TEMPO 2815/2821 -SHRA BKN012 BKN020TCU
View NOTAMs / SUP AIP / TFR affecting this airport [VIEW]
Communications frequencies: [VIEW]

Runways:

RWY identifierQFULength (ft)Width (ft)SurfaceLDA (ft)
13131°8202197ASPH8202
31311°8202197ASPH8202

Airport contact information

Address: Szczecin Poland

Satellite view of EPSC